Terminal Aerodrome Forecast
Issued by NWS Twin Cities, MN

Home | Current Version | Previous Version | Graphics & Text | Print | Product List | Glossary Off
Versions: 1 2 3 4 5 6 7 8 9 10 11 12 13 14 15 16 17 18 19 20

000
FTUS43 KMPX 150520
TAFSTC
TAF
KSTC 150520Z 1506/1606 31011KT 6SM -SHSN BKN040
     FM150800 29007KT P6SM BKN030
     FM151200 29006KT P6SM -SHSN BKN025
     FM151600 VRB03KT P6SM OVC020
     FM152100 21006KT 6SM -SHSN OVC015
     FM160000 16005KT 6SM -SHSN OVC020=

USA.gov is the U.S. government's official web portal to all federal, state and local government web resources and services.